Time;durP1;ratioP1;P1;durP2;ratioP2;P2;SDS_P1;SDS_P2;PMS_P1;PMS_P2;Temp;Humidity;BMP_temperature;BMP_pressure;BME280_temperature;BME280_humidity;BME280_pressure;Samples;Min_cycle;Max_cycle;Signal;HPM_P1;HPM_P2
2021/10/01 00:01:57;;;;;;;4.38;1.15;;;;;;;;;;5021774;28;20025;-77
2021/10/01 00:04:23;;;;;;;4.20;1.05;;;;;;;;;;5022418;28;20044;-77
2021/10/01 00:06:49;;;;;;;4.88;1.38;;;;;;;;;;5005964;28;20093;-77
2021/10/01 00:09:15;;;;;;;6.63;1.55;;;;;;;;;;5021968;28;20033;-77
2021/10/01 00:11:46;;;;;;;3.75;1.25;;;;;;;;;;5016755;28;20026;-77
2021/10/01 00:14:12;;;;;;;2.28;1.00;;;;;;;;;;4996117;28;20494;-78
2021/10/01 00:16:38;;;;;;;2.88;0.90;;;;;;;;;;4997941;28;20033;-77
2021/10/01 00:19:04;;;;;;;3.92;1.10;;;;;;;;;;4996389;28;20034;-78
2021/10/01 00:21:30;;;;;;;4.50;1.10;;;;;;;;;;4997149;28;20554;-77
2021/10/01 00:23:56;;;;;;;3.72;1.35;;;;;;;;;;4997148;28;20026;-77
2021/10/01 00:26:22;;;;;;;4.95;1.33;;;;;;;;;;4996758;28;20034;-78
2021/10/01 00:28:48;;;;;;;2.92;1.35;;;;;;;;;;4997434;28;20066;-77
2021/10/01 00:31:14;;;;;;;4.22;1.10;;;;;;;;;;5016193;28;20034;-78
2021/10/01 00:33:40;;;;;;;5.70;1.15;;;;;;;;;;5016261;28;20052;-78
2021/10/01 00:36:06;;;;;;;2.60;1.27;;;;;;;;;;4998511;28;20030;-77
2021/10/01 00:38:32;;;;;;;3.95;1.10;;;;;;;;;;5016081;28;20030;-78
2021/10/01 00:40:58;;;;;;;2.05;1.20;;;;;;;;;;5015607;28;20494;-78
2021/10/01 00:43:24;;;;;;;2.55;1.10;;;;;;;;;;5016139;28;20034;-78
2021/10/01 00:45:50;;;;;;;2.45;0.90;;;;;;;;;;5016144;28;20397;-78
2021/10/01 00:48:16;;;;;;;4.18;1.70;;;;;;;;;;4998297;28;20034;-77
2021/10/01 00:50:42;;;;;;;2.22;1.40;;;;;;;;;;5015035;28;20112;-78
2021/10/01 00:53:09;;;;;;;2.80;1.25;;;;;;;;;;5016242;28;20026;-77
2021/10/01 00:55:35;;;;;;;6.38;1.15;;;;;;;;;;5015817;28;20089;-77
2021/10/01 00:58:01;;;;;;;1.55;0.93;;;;;;;;;;4998296;28;20557;-77
2021/10/01 01:00:30;;;;;;;6.03;1.40;;;;;;;;;;5014854;28;20085;-77
2021/10/01 01:02:59;;;;;;;4.63;1.13;;;;;;;;;;5015813;28;20026;-77
2021/10/01 01:05:29;;;;;;;2.83;1.25;;;;;;;;;;5015479;28;20024;-77
2021/10/01 01:07:59;;;;;;;6.28;1.33;;;;;;;;;;5015383;28;20474;-77
2021/10/01 01:10:30;;;;;;;3.83;1.13;;;;;;;;;;5014531;28;20105;-77
2021/10/01 01:13:06;;;;;;;3.72;1.25;;;;;;;;;;5015085;28;20494;-77
2021/10/01 01:15:33;;;;;;;4.05;1.10;;;;;;;;;;5015359;28;20108;-78
2021/10/01 01:18:01;;;;;;;1.33;0.80;;;;;;;;;;4998142;28;20030;-78
2021/10/01 01:20:30;;;;;;;6.15;1.20;;;;;;;;;;5014948;28;20041;-77
2021/10/01 01:22:59;;;;;;;2.80;1.10;;;;;;;;;;5015198;28;20030;-77
2021/10/01 01:25:34;;;;;;;3.88;0.82;;;;;;;;;;5002378;28;20503;-77
2021/10/01 01:28:06;;;;;;;5.53;1.52;;;;;;;;;;5014484;28;20034;-77
2021/10/01 01:31:02;;;;;;;2.42;1.35;;;;;;;;;;5013892;28;20101;-77
2021/10/01 01:33:29;;;;;;;1.77;1.05;;;;;;;;;;4999486;28;20042;-77
2021/10/01 01:35:57;;;;;;;2.28;1.13;;;;;;;;;;5022904;28;20061;-78
2021/10/01 01:38:36;;;;;;;2.83;1.48;;;;;;;;;;4998427;28;20036;-77
2021/10/01 01:41:04;;;;;;;2.30;1.10;;;;;;;;;;5015311;28;20026;-78
2021/10/01 01:43:31;;;;;;;1.67;0.98;;;;;;;;;;5016122;28;20026;-77
2021/10/01 01:45:57;;;;;;;2.53;1.13;;;;;;;;;;5014955;28;20487;-77
2021/10/01 01:48:24;;;;;;;2.33;1.13;;;;;;;;;;5014869;28;20042;-78
2021/10/01 01:50:50;;;;;;;2.58;1.50;;;;;;;;;;4996223;28;20062;-77
2021/10/01 01:53:18;;;;;;;2.90;1.20;;;;;;;;;;5015355;28;20080;-77
2021/10/01 01:55:44;;;;;;;2.65;1.30;;;;;;;;;;5015372;28;20030;-77
2021/10/01 01:58:10;;;;;;;9.02;2.70;;;;;;;;;;5015074;28;20025;-77
2021/10/01 02:00:37;;;;;;;3.22;1.50;;;;;;;;;;5013643;28;20172;-77
2021/10/01 02:03:04;;;;;;;4.13;1.45;;;;;;;;;;5014799;28;20045;-77
2021/10/01 02:05:30;;;;;;;3.38;1.40;;;;;;;;;;4996995;28;20141;-77
2021/10/01 02:07:58;;;;;;;2.30;1.50;;;;;;;;;;5014898;28;20045;-77
2021/10/01 02:10:24;;;;;;;1.50;1.20;;;;;;;;;;5014465;28;20471;-77
2021/10/01 02:12:52;;;;;;;3.58;1.33;;;;;;;;;;5013741;28;20085;-77
2021/10/01 02:15:18;;;;;;;3.15;1.40;;;;;;;;;;5014879;28;20026;-77
2021/10/01 02:17:46;;;;;;;3.63;1.30;;;;;;;;;;5026849;28;20030;-77
2021/10/01 02:20:13;;;;;;;7.25;2.00;;;;;;;;;;4983475;28;20034;-77
2021/10/01 02:22:39;;;;;;;1.92;1.48;;;;;;;;;;5014485;28;20026;-77
2021/10/01 02:25:05;;;;;;;3.53;1.20;;;;;;;;;;4996557;28;20128;-77
2021/10/01 02:28:00;;;;;;;6.20;1.48;;;;;;;;;;5014435;28;20072;-77
2021/10/01 02:30:28;;;;;;;2.30;1.13;;;;;;;;;;4982987;28;20034;-77
2021/10/01 02:33:02;;;;;;;2.72;1.17;;;;;;;;;;5015660;28;20029;-77
2021/10/01 02:35:28;;;;;;;3.17;1.17;;;;;;;;;;5015672;28;20034;-78
2021/10/01 02:37:54;;;;;;;2.38;1.13;;;;;;;;;;5015761;28;20030;-77
2021/10/01 02:40:21;;;;;;;4.03;1.30;;;;;;;;;;5014932;28;20045;-77
2021/10/01 02:42:47;;;;;;;1.60;0.95;;;;;;;;;;5016272;28;20104;-77
2021/10/01 02:45:13;;;;;;;2.60;1.20;;;;;;;;;;5017086;28;20088;-77
2021/10/01 02:47:40;;;;;;;4.53;1.30;;;;;;;;;;5002305;28;20026;-77
2021/10/01 02:50:10;;;;;;;5.03;1.33;;;;;;;;;;5019281;28;20026;-77
2021/10/01 02:52:44;;;;;;;1.88;1.30;;;;;;;;;;5000819;28;20029;-77
2021/10/01 02:55:16;;;;;;;7.13;1.33;;;;;;;;;;5016026;28;20119;-77
2021/10/01 02:58:04;;;;;;;8.35;1.50;;;;;;;;;;5017164;28;20083;-77
2021/10/01 03:00:31;;;;;;;3.75;1.52;;;;;;;;;;4997999;28;20406;-77
2021/10/01 03:02:57;;;;;;;5.75;1.45;;;;;;;;;;5021115;28;20030;-77
2021/10/01 03:05:24;;;;;;;4.28;1.35;;;;;;;;;;5022507;28;20117;-77
2021/10/01 03:07:50;;;;;;;4.05;1.42;;;;;;;;;;5033949;28;20022;-77
2021/10/01 03:10:17;;;;;;;3.35;1.40;;;;;;;;;;5031749;28;20057;-77
2021/10/01 03:12:43;;;;;;;2.53;1.45;;;;;;;;;;5030939;28;20065;-77
2021/10/01 03:15:10;;;;;;;6.35;1.63;;;;;;;;;;5029747;28;20033;-77
2021/10/01 03:17:37;;;;;;;5.22;1.98;;;;;;;;;;5026165;28;20057;-77
2021/10/01 03:20:04;;;;;;;5.05;1.60;;;;;;;;;;5024096;28;20045;-77
2021/10/01 03:22:33;;;;;;;4.63;1.88;;;;;;;;;;5025375;28;20442;-77
2021/10/01 03:25:00;;;;;;;2.95;1.67;;;;;;;;;;5002581;28;20022;-77
2021/10/01 03:27:31;;;;;;;6.55;1.67;;;;;;;;;;5016097;28;20034;-77
2021/10/01 03:29:59;;;;;;;4.82;1.75;;;;;;;;;;5014897;28;20070;-77
2021/10/01 03:32:26;;;;;;;5.90;1.40;;;;;;;;;;5020136;28;20088;-77
2021/10/01 03:34:52;;;;;;;6.43;2.05;;;;;;;;;;5016258;28;20113;-76
2021/10/01 03:37:18;;;;;;;4.30;2.30;;;;;;;;;;4998397;28;20030;-76
2021/10/01 03:39:54;;;;;;;5.43;2.47;;;;;;;;;;5014979;28;20487;-76
2021/10/01 03:42:20;;;;;;;5.45;2.55;;;;;;;;;;5015193;28;20451;-76
2021/10/01 03:44:46;;;;;;;5.45;2.28;;;;;;;;;;5014884;28;20064;-76
2021/10/01 03:47:12;;;;;;;7.40;2.25;;;;;;;;;;5015157;28;20034;-76
2021/10/01 03:49:38;;;;;;;4.75;1.88;;;;;;;;;;5014414;28;20030;-76
2021/10/01 03:52:04;;;;;;;5.90;2.00;;;;;;;;;;5014884;28;20032;-77
2021/10/01 03:54:30;;;;;;;4.97;1.67;;;;;;;;;;5016855;28;20030;-77
2021/10/01 03:56:56;;;;;;;3.70;1.90;;;;;;;;;;4998977;28;20022;-77
2021/10/01 03:59:22;;;;;;;6.70;2.00;;;;;;;;;;5016010;28;20080;-78
2021/10/01 04:01:48;;;;;;;4.53;1.58;;;;;;;;;;4998392;28;20518;-78
2021/10/01 04:04:14;;;;;;;3.08;2.13;;;;;;;;;;5016345;28;20113;-78
2021/10/01 04:06:40;;;;;;;2.95;1.70;;;;;;;;;;5015850;28;20062;-78
2021/10/01 04:09:06;;;;;;;2.78;1.58;;;;;;;;;;5015717;28;20447;-78
2021/10/01 04:11:34;;;;;;;4.78;1.90;;;;;;;;;;4998174;28;20230;-78
2021/10/01 04:14:00;;;;;;;5.25;1.80;;;;;;;;;;5016037;28;20029;-78
2021/10/01 04:16:26;;;;;;;4.25;1.98;;;;;;;;;;5015077;28;20387;-77
2021/10/01 04:18:52;;;;;;;5.85;2.63;;;;;;;;;;5015121;28;20119;-78
2021/10/01 04:21:18;;;;;;;4.68;2.00;;;;;;;;;;5014973;28;20479;-78
2021/10/01 04:23:44;;;;;;;4.32;2.05;;;;;;;;;;5015246;28;20034;-77
2021/10/01 04:26:10;;;;;;;7.28;2.00;;;;;;;;;;5015425;28;20059;-78
2021/10/01 04:28:36;;;;;;;3.72;1.38;;;;;;;;;;5014929;28;20029;-78
2021/10/01 04:31:02;;;;;;;3.85;1.75;;;;;;;;;;5014113;28;20034;-78
2021/10/01 04:33:28;;;;;;;5.53;1.73;;;;;;;;;;5014802;28;20050;-77
2021/10/01 04:35:55;;;;;;;2.85;1.58;;;;;;;;;;5014668;28;20022;-77
2021/10/01 04:38:22;;;;;;;1.92;1.40;;;;;;;;;;5014465;28;20084;-77
2021/10/01 04:40:48;;;;;;;4.03;1.48;;;;;;;;;;5013916;28;20112;-78
2021/10/01 04:43:14;;;;;;;3.88;1.80;;;;;;;;;;5014552;28;20022;-78
2021/10/01 04:45:40;;;;;;;4.40;1.38;;;;;;;;;;5014358;28;20026;-77
2021/10/01 04:48:06;;;;;;;5.93;1.75;;;;;;;;;;5014427;28;20042;-78
2021/10/01 04:50:33;;;;;;;9.50;1.85;;;;;;;;;;5013825;28;20048;-77
2021/10/01 04:53:00;;;;;;;4.40;1.50;;;;;;;;;;5017315;23;20046;-77
2021/10/01 04:55:26;;;;;;;4.43;1.98;;;;;;;;;;5002202;28;20100;-77
2021/10/01 04:57:53;;;;;;;4.13;1.80;;;;;;;;;;4992832;28;20034;-77
2021/10/01 05:00:19;;;;;;;4.35;2.08;;;;;;;;;;5000776;28;20054;-77
2021/10/01 05:02:45;;;;;;;1.83;1.40;;;;;;;;;;5001140;28;20026;-77
2021/10/01 05:05:11;;;;;;;4.65;1.80;;;;;;;;;;4999389;28;20041;-77
2021/10/01 05:07:37;;;;;;;3.70;1.88;;;;;;;;;;4964953;28;20400;-77
2021/10/01 05:10:04;;;;;;;9.18;2.30;;;;;;;;;;4997490;28;20026;-77
2021/10/01 05:12:30;;;;;;;3.40;1.73;;;;;;;;;;5000834;28;20038;-77
2021/10/01 05:14:56;;;;;;;4.00;1.85;;;;;;;;;;4983493;28;20026;-78
2021/10/01 05:17:23;;;;;;;4.22;1.63;;;;;;;;;;4965653;28;20438;-77
2021/10/01 05:19:49;;;;;;;6.38;2.10;;;;;;;;;;4997653;28;20398;-77
2021/10/01 05:22:15;;;;;;;8.35;1.85;;;;;;;;;;4997799;28;20031;-78
2021/10/01 05:24:42;;;;;;;4.57;1.63;;;;;;;;;;4998198;28;20022;-77
2021/10/01 05:27:08;;;;;;;4.13;1.63;;;;;;;;;;4975307;28;20034;-77
2021/10/01 05:29:34;;;;;;;7.13;1.83;;;;;;;;;;4976891;28;20026;-77
2021/10/01 05:32:00;;;;;;;5.45;1.67;;;;;;;;;;4977413;28;20019;-78
2021/10/01 05:34:26;;;;;;;8.07;2.00;;;;;;;;;;4988228;28;20031;-77
2021/10/01 05:36:52;;;;;;;4.50;2.00;;;;;;;;;;4988989;28;20035;-77
2021/10/01 05:39:19;;;;;;;5.35;1.70;;;;;;;;;;4989965;28;20098;-77
2021/10/01 05:41:45;;;;;;;5.78;1.58;;;;;;;;;;4968944;28;20037;-77
2021/10/01 05:44:11;;;;;;;5.50;2.10;;;;;;;;;;4979353;28;20031;-77
2021/10/01 05:46:41;;;;;;;9.48;1.75;;;;;;;;;;4978739;28;20035;-77
2021/10/01 05:49:10;;;;;;;6.10;2.05;;;;;;;;;;4962357;28;20030;-77
2021/10/01 05:51:40;;;;;;;3.22;1.88;;;;;;;;;;4977852;28;20078;-77
2021/10/01 05:56:32;;;;;;;4.55;1.85;;;;;;;;;;5000008;28;20027;-78
2021/10/01 05:58:58;;;;;;;6.13;2.20;;;;;;;;;;4961963;28;20700;-78
2021/10/01 06:01:24;;;;;;;6.60;1.90;;;;;;;;;;4962705;28;20031;-77
2021/10/01 06:03:51;;;;;;;7.07;2.10;;;;;;;;;;4962748;28;20041;-78
2021/10/01 06:06:17;;;;;;;7.25;1.75;;;;;;;;;;4962284;28;20031;-77
2021/10/01 06:08:43;;;;;;;4.70;1.80;;;;;;;;;;4978589;28;20027;-78
2021/10/01 06:11:09;;;;;;;4.60;1.60;;;;;;;;;;4977561;28;20030;-78
2021/10/01 06:13:37;;;;;;;6.55;1.60;;;;;;;;;;4976974;28;20041;-77
2021/10/01 06:16:03;;;;;;;6.50;2.05;;;;;;;;;;4964100;28;20653;-77
2021/10/01 06:18:29;;;;;;;5.47;1.70;;;;;;;;;;4968592;28;20038;-78
2021/10/01 06:20:55;;;;;;;5.32;2.15;;;;;;;;;;4992967;28;20077;-78
2021/10/01 06:23:23;;;;;;;4.85;1.85;;;;;;;;;;4975273;28;20689;-77
2021/10/01 06:25:49;;;;;;;6.50;3.00;;;;;;;;;;4958292;28;20031;-78
2021/10/01 06:28:15;;;;;;;4.15;2.40;;;;;;;;;;4958193;28;20065;-77
2021/10/01 06:30:42;;;;;;;7.20;2.05;;;;;;;;;;4974353;28;20023;-78
2021/10/01 06:33:08;;;;;;;4.82;2.17;;;;;;;;;;4973907;28;20019;-77
2021/10/01 06:35:34;;;;;;;4.18;2.13;;;;;;;;;;4976865;28;20082;-77
2021/10/01 06:38:00;;;;;;;3.75;2.40;;;;;;;;;;4976168;28;20025;-78
2021/10/01 06:40:26;;;;;;;7.85;3.15;;;;;;;;;;4973851;28;20562;-78
2021/10/01 06:42:55;;;;;;;7.25;2.00;;;;;;;;;;4977549;28;20031;-77
2021/10/01 06:45:27;;;;;;;7.00;3.70;;;;;;;;;;4987139;28;20029;-77
2021/10/01 06:48:10;;;;;;;;;;;;;;;;;;4980162;28;20023;-78
2021/10/01 07:23:24;;;;;;;4.30;1.50;;;;;;;;;;4980544;28;20125;-78
2021/10/01 08:20:01;;;;;;;5.03;1.13;;;;;;;;;;5004505;28;20061;-77
2021/10/01 08:22:27;;;;;;;2.60;1.38;;;;;;;;;;5004444;28;20034;-78
2021/10/01 08:24:54;;;;;;;4.45;1.10;;;;;;;;;;4971366;28;20034;-78
2021/10/01 08:27:23;;;;;;;4.53;1.60;;;;;;;;;;4987792;28;20462;-78
2021/10/01 08:29:49;;;;;;;5.90;1.58;;;;;;;;;;5003976;28;20069;-78
2021/10/01 08:32:15;;;;;;;4.40;1.55;;;;;;;;;;4987444;28;20038;-78
2021/10/01 08:34:43;;;;;;;4.60;1.88;;;;;;;;;;4987680;28;20037;-77
2021/10/01 08:37:13;;;;;;;4.57;1.88;;;;;;;;;;4987155;28;20041;-78
2021/10/01 08:39:39;;;;;;;7.35;2.03;;;;;;;;;;4986643;28;20114;-77
2021/10/01 08:42:05;;;;;;;4.35;1.67;;;;;;;;;;4978912;28;20499;-78
2021/10/01 08:44:32;;;;;;;3.13;1.20;;;;;;;;;;4999831;28;20109;-78
2021/10/01 08:46:59;;;;;;;4.15;1.60;;;;;;;;;;4987005;28;20031;-78
2021/10/01 08:49:26;;;;;;;3.75;1.25;;;;;;;;;;4983095;28;20030;-78
2021/10/01 08:51:52;;;;;;;5.05;1.38;;;;;;;;;;4958590;28;20039;-76
2021/10/01 08:54:19;;;;;;;4.22;1.30;;;;;;;;;;4982223;28;20511;-78
2021/10/01 08:56:45;;;;;;;4.07;1.45;;;;;;;;;;4967918;28;20050;-78
2021/10/01 08:59:11;;;;;;;2.00;1.08;;;;;;;;;;4966562;28;20026;-78
2021/10/01 09:01:37;;;;;;;2.15;1.02;;;;;;;;;;4975338;28;20030;-78
2021/10/01 09:04:04;;;;;;;1.98;1.00;;;;;;;;;;4986971;28;20492;-78
2021/10/01 09:06:30;;;;;;;3.38;0.93;;;;;;;;;;4989245;28;20030;-77
2021/10/01 09:08:58;;;;;;;2.53;0.60;;;;;;;;;;4983196;28;20597;-78
2021/10/01 09:11:31;;;;;;;1.75;0.68;;;;;;;;;;4984986;28;20030;-78
2021/10/01 09:14:01;;;;;;;2.00;0.60;;;;;;;;;;4982152;28;20025;-77
2021/10/01 09:16:27;;;;;;;4.03;0.95;;;;;;;;;;4993360;28;20030;-78
2021/10/01 09:18:53;;;;;;;2.65;0.90;;;;;;;;;;5002464;28;20034;-78
2021/10/01 09:21:23;;;;;;;1.63;0.80;;;;;;;;;;5002196;28;20057;-78
2021/10/01 09:23:58;;;;;;;2.95;1.40;;;;;;;;;;4981310;28;20026;-78
2021/10/01 09:26:25;;;;;;;3.45;1.05;;;;;;;;;;4944657;28;20031;-77
2021/10/01 09:29:00;;;;;;;1.80;1.10;;;;;;;;;;4952496;28;20542;-77
2021/10/01 09:31:32;;;;;;;4.80;1.48;;;;;;;;;;4970331;28;20027;-76
2021/10/01 09:33:59;;;;;;;3.63;0.90;;;;;;;;;;4971880;28;20543;-77
2021/10/01 09:36:26;;;;;;;3.15;0.88;;;;;;;;;;4973898;28;20038;-79
2021/10/01 09:38:53;;;;;;;1.58;0.60;;;;;;;;;;4978491;28;20030;-77
2021/10/01 09:41:25;;;;;;;5.18;0.93;;;;;;;;;;4990320;28;20030;-77
2021/10/01 09:44:06;;;;;;;4.63;0.88;;;;;;;;;;4941404;28;20041;-76
2021/10/01 09:46:36;;;;;;;3.28;0.80;;;;;;;;;;4975867;28;20022;-77
2021/10/01 09:49:03;;;;;;;2.92;0.90;;;;;;;;;;4959601;28;20082;-78
2021/10/01 09:51:29;;;;;;;2.92;0.90;;;;;;;;;;4963890;28;20033;-77
2021/10/01 09:53:56;;;;;;;1.48;0.70;;;;;;;;;;4961879;28;20049;-78
2021/10/01 09:56:30;;;;;;;2.22;0.90;;;;;;;;;;4980886;28;20113;-78
2021/10/01 09:59:12;;;;;;;3.47;0.85;;;;;;;;;;4980315;28;20065;-78
2021/10/01 10:01:58;;;;;;;7.65;0.90;;;;;;;;;;4981066;28;20034;-79
2021/10/01 10:04:25;;;;;;;2.95;0.77;;;;;;;;;;4995404;28;20035;-77
2021/10/01 10:06:51;;;;;;;2.20;0.90;;;;;;;;;;4998623;28;20060;-78
2021/10/01 10:09:29;;;;;;;1.70;0.90;;;;;;;;;;4986806;28;20037;-79
2021/10/01 10:11:55;;;;;;;1.90;1.00;;;;;;;;;;4978141;28;20022;-78
2021/10/01 10:14:21;;;;;;;2.35;0.90;;;;;;;;;;4970708;28;20038;-77
2021/10/01 10:16:47;;;;;;;2.60;0.73;;;;;;;;;;4981313;28;20034;-78
2021/10/01 10:19:20;;;;;;;2.42;0.65;;;;;;;;;;4959491;28;20804;-77
2021/10/01 10:21:46;;;;;;;3.15;0.93;;;;;;;;;;4960572;28;20023;-76
2021/10/01 10:24:12;;;;;;;4.93;0.80;;;;;;;;;;4977118;28;20360;-78
2021/10/01 10:26:38;;;;;;;2.65;0.70;;;;;;;;;;4974496;28;20077;-79
2021/10/01 10:29:05;;;;;;;2.70;0.70;;;;;;;;;;4979251;28;20053;-78
2021/10/01 10:31:33;;;;;;;2.92;0.90;;;;;;;;;;4961590;28;20053;-78
2021/10/01 10:33:59;;;;;;;2.25;0.63;;;;;;;;;;4993856;28;20034;-78
2021/10/01 10:36:25;;;;;;;6.57;1.02;;;;;;;;;;4995740;28;20027;-78
2021/10/01 10:38:51;;;;;;;2.63;0.60;;;;;;;;;;4979867;28;20027;-78
2021/10/01 10:41:22;;;;;;;2.80;0.70;;;;;;;;;;4981646;28;20499;-76
2021/10/01 10:43:48;;;;;;;2.17;0.50;;;;;;;;;;4982974;28;20044;-78
2021/10/01 10:46:34;;;;;;;4.30;1.55;;;;;;;;;;4980842;28;20038;-79
2021/10/01 10:52:17;;;;;;;3.42;1.27;;;;;;;;;;4998517;28;20030;-78
2021/10/01 10:54:45;;;;;;;4.53;0.80;;;;;;;;;;4997321;28;20034;-79
2021/10/01 10:57:17;;;;;;;1.38;0.70;;;;;;;;;;4997817;28;20022;-80
2021/10/01 10:59:43;;;;;;;;;;;;;;;;;;4958399;28;20031;-78
2021/10/01 11:02:19;;;;;;;4.20;0.90;;;;;;;;;;4969076;28;19906;-76
2021/10/01 11:04:49;;;;;;;1.85;0.52;;;;;;;;;;4984490;28;20033;-77
2021/10/01 11:07:34;;;;;;;3.00;0.60;;;;;;;;;;4970695;28;20080;-77
2021/10/01 11:10:18;;;;;;;1.35;0.60;;;;;;;;;;4971053;28;20031;-79
2021/10/01 11:12:44;;;;;;;2.17;0.50;;;;;;;;;;4969333;28;20034;-77
2021/10/01 11:15:15;;;;;;;2.10;0.82;;;;;;;;;;4972171;28;20085;-77
2021/10/01 11:17:41;;;;;;;3.55;0.80;;;;;;;;;;4971774;28;20118;-77
2021/10/01 11:20:08;;;;;;;3.22;0.57;;;;;;;;;;4987978;28;20113;-78
2021/10/01 11:22:39;;;;;;;2.80;0.60;;;;;;;;;;4989225;28;20680;-77
2021/10/01 11:25:12;;;;;;;1.55;0.70;;;;;;;;;;4974299;28;20023;-78
2021/10/01 11:27:52;;;;;;;6.00;0.98;;;;;;;;;;4991686;28;20022;-78
2021/10/01 11:30:18;;;;;;;5.05;1.10;;;;;;;;;;4990672;28;20022;-77
2021/10/01 11:32:44;;;;;;;3.05;0.63;;;;;;;;;;4971362;28;20033;-78
2021/10/01 11:35:11;;;;;;;1.80;0.68;;;;;;;;;;4967057;28;20555;-77
2021/10/01 11:37:44;;;;;;;9.32;1.00;;;;;;;;;;4971354;28;20031;-77
2021/10/01 11:40:11;;;;;;;4.97;0.77;;;;;;;;;;4953980;28;20043;-78
2021/10/01 11:42:41;;;;;;;10.82;1.52;;;;;;;;;;4970923;28;20035;-78
2021/10/01 11:45:09;;;;;;;4.72;0.90;;;;;;;;;;4978369;28;20037;-77
2021/10/01 11:47:36;;;;;;;5.55;0.90;;;;;;;;;;4990948;28;20092;-78
2021/10/01 11:50:02;;;;;;;3.30;0.90;;;;;;;;;;4991137;28;20510;-77
2021/10/01 11:52:28;;;;;;;2.65;0.43;;;;;;;;;;4990572;28;20033;-77
2021/10/01 11:54:57;;;;;;;5.82;0.70;;;;;;;;;;4991082;28;20044;-78
2021/10/01 11:57:24;;;;;;;2.97;0.38;;;;;;;;;;4974105;28;20127;-78
2021/10/01 11:59:52;;;;;;;2.47;0.47;;;;;;;;;;4981771;28;20532;-77
2021/10/01 12:02:28;;;;;;;3.05;0.50;;;;;;;;;;4971139;28;20110;-77
2021/10/01 12:04:54;;;;;;;0.75;0.50;;;;;;;;;;4972024;28;20030;-79
2021/10/01 12:07:20;;;;;;;2.25;0.40;;;;;;;;;;4972379;28;20030;-78
2021/10/01 12:10:05;;;;;;;1.90;0.60;;;;;;;;;;4971286;28;20030;-78
2021/10/01 12:12:31;;;;;;;2.45;0.43;;;;;;;;;;4972241;28;20055;-79
2021/10/01 12:15:00;;;;;;;2.58;0.57;;;;;;;;;;4971578;28;20058;-79
2021/10/01 12:17:37;;;;;;;1.48;0.50;;;;;;;;;;4966498;28;20019;-77
2021/10/01 12:20:03;;;;;;;2.70;0.50;;;;;;;;;;4968894;28;20035;-77
2021/10/01 12:22:32;;;;;;;1.23;0.47;;;;;;;;;;4952234;28;20041;-77
2021/10/01 12:24:58;;;;;;;1.58;0.55;;;;;;;;;;4970882;28;20061;-79
2021/10/01 12:27:39;;;;;;;1.83;0.40;;;;;;;;;;4970378;28;20115;-78
2021/10/01 12:30:06;;;;;;;3.60;0.63;;;;;;;;;;4968345;28;20495;-78
2021/10/01 12:32:32;;;;;;;1.50;0.50;;;;;;;;;;4952537;28;20317;-79
2021/10/01 12:34:59;;;;;;;1.35;0.30;;;;;;;;;;4963040;28;20682;-79
2021/10/01 12:37:26;;;;;;;3.05;0.70;;;;;;;;;;4971177;28;20616;-78
2021/10/01 12:39:57;;;;;;;5.78;0.70;;;;;;;;;;4966411;28;20031;-78
2021/10/01 12:42:28;;;;;;;5.25;0.82;;;;;;;;;;4967418;28;20035;-78
2021/10/01 12:44:59;;;;;;;1.50;0.75;;;;;;;;;;4978105;28;20054;-79
2021/10/01 12:47:25;;;;;;;5.88;0.80;;;;;;;;;;4946061;28;20081;-79
2021/10/01 12:49:57;;;;;;;4.32;0.70;;;;;;;;;;4950819;28;20035;-78
2021/10/01 12:52:27;;;;;;;2.80;0.82;;;;;;;;;;4969833;28;20034;-79
2021/10/01 12:55:01;;;;;;;2.53;0.90;;;;;;;;;;4970659;28;20027;-78
2021/10/01 12:57:30;;;;;;;2.33;0.60;;;;;;;;;;4965080;28;20611;-77
2021/10/01 12:59:58;;;;;;;2.03;0.80;;;;;;;;;;4970931;28;20026;-79
2021/10/01 13:02:28;;;;;;;3.08;0.70;;;;;;;;;;4971950;28;20022;-80
2021/10/01 13:04:57;;;;;;;1.30;0.70;;;;;;;;;;4979232;28;20042;-80
2021/10/01 13:07:27;;;;;;;3.58;0.73;;;;;;;;;;4973048;28;20031;-78
2021/10/01 13:09:54;;;;;;;4.72;1.05;;;;;;;;;;4975666;28;20082;-78
2021/10/01 13:12:47;;;;;;;2.72;0.80;;;;;;;;;;4954585;28;20103;-78
2021/10/01 13:15:17;;;;;;;3.10;0.90;;;;;;;;;;4969509;28;20047;-78
2021/10/01 13:17:58;;;;;;;4.65;0.77;;;;;;;;;;4978567;28;20031;-78
2021/10/01 13:20:25;;;;;;;5.10;0.60;;;;;;;;;;4970402;28;20022;-79
2021/10/01 13:22:55;;;;;;;2.22;0.60;;;;;;;;;;4971820;28;20105;-78
2021/10/01 13:25:22;;;;;;;2.20;0.70;;;;;;;;;;4971882;28;20027;-77
2021/10/01 13:27:58;;;;;;;2.08;0.52;;;;;;;;;;4976164;28;20018;-78
2021/10/01 13:30:24;;;;;;;1.70;0.60;;;;;;;;;;4969526;28;20105;-77
2021/10/01 13:32:50;;;;;;;2.95;0.85;;;;;;;;;;4982653;28;20027;-78
2021/10/01 13:35:17;;;;;;;1.88;0.70;;;;;;;;;;4983115;28;20526;-77
2021/10/01 13:37:44;;;;;;;2.70;0.60;;;;;;;;;;4973204;28;20384;-78
2021/10/01 13:40:10;;;;;;;4.07;0.85;;;;;;;;;;4972539;28;20041;-78
2021/10/01 13:42:36;;;;;;;6.30;0.90;;;;;;;;;;4972598;28;20388;-79
2021/10/01 13:45:03;;;;;;;2.03;0.70;;;;;;;;;;4972855;28;20392;-77
2021/10/01 13:47:31;;;;;;;1.40;0.60;;;;;;;;;;4956117;28;20022;-79
2021/10/01 13:49:58;;;;;;;1.88;0.60;;;;;;;;;;4972443;28;20026;-78
2021/10/01 13:52:24;;;;;;;2.63;0.80;;;;;;;;;;4972732;28;20031;-78
2021/10/01 13:54:50;;;;;;;3.47;1.08;;;;;;;;;;4974329;28;20022;-79
2021/10/01 13:57:16;;;;;;;2.08;0.77;;;;;;;;;;4989422;28;20390;-78
2021/10/01 13:59:42;;;;;;;1.95;0.80;;;;;;;;;;5002785;28;20041;-79
2021/10/01 14:02:08;;;;;;;3.67;0.80;;;;;;;;;;4978758;28;20045;-78
2021/10/01 14:04:35;;;;;;;2.95;0.73;;;;;;;;;;4983692;28;20087;-79
2021/10/01 14:07:01;;;;;;;1.98;0.80;;;;;;;;;;4982076;28;20034;-76
2021/10/01 14:09:27;;;;;;;4.00;0.88;;;;;;;;;;4944312;28;20022;-81
2021/10/01 14:11:53;;;;;;;4.88;0.80;;;;;;;;;;4959796;28;20019;-81
2021/10/01 14:14:19;;;;;;;3.78;1.00;;;;;;;;;;4977288;28;20058;-80
2021/10/01 14:16:45;;;;;;;3.28;1.15;;;;;;;;;;4967048;28;20069;-79
2021/10/01 14:19:11;;;;;;;3.92;0.95;;;;;;;;;;4986774;28;20031;-81
2021/10/01 14:21:37;;;;;;;2.80;0.80;;;;;;;;;;4990775;28;20101;-81
2021/10/01 14:24:03;;;;;;;5.13;0.98;;;;;;;;;;4988208;23;20046;-82
2021/10/01 14:26:30;;;;;;;2.13;0.70;;;;;;;;;;4998376;28;20478;-84
2021/10/01 14:28:56;;;;;;;4.25;0.93;;;;;;;;;;4974302;28;20049;-82
2021/10/01 14:31:22;;;;;;;2.40;0.70;;;;;;;;;;4994821;28;20034;-82
2021/10/01 14:33:48;;;;;;;4.43;0.95;;;;;;;;;;4986922;28;20065;-83
2021/10/01 14:36:14;;;;;;;4.38;1.10;;;;;;;;;;4997880;28;20026;-82
2021/10/01 14:38:40;;;;;;;2.70;1.08;;;;;;;;;;4996965;28;20026;-84
2021/10/01 14:41:06;;;;;;;5.15;0.70;;;;;;;;;;4995551;28;20022;-81
2021/10/01 14:43:33;;;;;;;1.95;0.90;;;;;;;;;;4997521;28;20033;-81
2021/10/01 14:45:59;;;;;;;2.63;1.00;;;;;;;;;;4998204;28;20390;-81
2021/10/01 14:48:25;;;;;;;2.65;0.80;;;;;;;;;;4997635;28;20026;-82
2021/10/01 14:50:51;;;;;;;1.85;0.80;;;;;;;;;;4996511;28;20033;-82
2021/10/01 14:53:17;;;;;;;1.00;0.73;;;;;;;;;;4997461;28;20026;-82
2021/10/01 14:55:44;;;;;;;3.28;0.80;;;;;;;;;;4998043;28;20074;-82
2021/10/01 14:58:10;;;;;;;4.28;0.70;;;;;;;;;;5004166;28;20034;-81
2021/10/01 15:00:36;;;;;;;2.65;0.80;;;;;;;;;;5007656;28;20061;-81
2021/10/01 15:03:05;;;;;;;2.65;0.82;;;;;;;;;;5007887;28;20057;-81
2021/10/01 15:05:31;;;;;;;2.55;0.95;;;;;;;;;;5007674;28;20080;-81
2021/10/01 15:07:57;;;;;;;3.58;0.70;;;;;;;;;;5003262;28;20037;-82
2021/10/01 15:10:23;;;;;;;1.98;0.70;;;;;;;;;;5002076;28;20028;-81
2021/10/01 15:12:50;;;;;;;3.40;0.75;;;;;;;;;;5003074;28;20018;-82
2021/10/01 15:15:16;;;;;;;3.15;0.70;;;;;;;;;;5002985;28;20026;-82
2021/10/01 15:17:42;;;;;;;3.90;0.65;;;;;;;;;;5004353;28;20034;-81
2021/10/01 15:20:08;;;;;;;2.10;1.10;;;;;;;;;;5000757;28;20068;-81
2021/10/01 15:22:35;;;;;;;2.58;0.80;;;;;;;;;;5000334;28;20371;-81
2021/10/01 15:25:01;;;;;;;1.77;0.73;;;;;;;;;;5001288;28;20034;-81
2021/10/01 15:27:27;;;;;;;2.60;0.90;;;;;;;;;;5002762;28;20030;-82
2021/10/01 15:29:59;;;;;;;3.28;0.70;;;;;;;;;;5002318;28;20483;-82
2021/10/01 15:32:25;;;;;;;;;;;;;;;;;;5001288;28;20093;-82
2021/10/01 15:34:51;;;;;;;1.08;0.57;;;;;;;;;;5001614;28;19905;-82
2021/10/01 15:37:17;;;;;;;2.90;0.80;;;;;;;;;;5007341;28;20057;-82
2021/10/01 15:39:43;;;;;;;3.28;0.95;;;;;;;;;;5010846;28;20042;-81
2021/10/01 15:42:09;;;;;;;4.47;1.10;;;;;;;;;;5005358;28;20042;-82
2021/10/01 15:44:36;;;;;;;3.22;0.90;;;;;;;;;;4998671;28;20394;-81
2021/10/01 15:47:02;;;;;;;3.25;0.90;;;;;;;;;;5001268;28;20033;-81
2021/10/01 15:49:28;;;;;;;3.60;1.00;;;;;;;;;;4998766;28;20037;-81
2021/10/01 15:51:55;;;;;;;4.75;0.70;;;;;;;;;;4996267;28;20034;-80
2021/10/01 15:54:21;;;;;;;4.82;1.00;;;;;;;;;;4993803;28;20045;-81
2021/10/01 15:56:47;;;;;;;3.53;1.00;;;;;;;;;;4996363;28;20034;-81
2021/10/01 15:59:13;;;;;;;1.92;0.68;;;;;;;;;;4993556;28;20034;-80
2021/10/01 16:01:39;;;;;;;2.47;0.90;;;;;;;;;;5002321;28;20041;-80
2021/10/01 16:04:05;;;;;;;4.63;1.40;;;;;;;;;;5006627;28;20033;-81
2021/10/01 16:06:31;;;;;;;2.33;0.85;;;;;;;;;;5008667;28;20062;-81
2021/10/01 16:08:57;;;;;;;4.60;1.10;;;;;;;;;;5009647;28;20058;-81
2021/10/01 16:11:24;;;;;;;3.90;2.22;;;;;;;;;;4992061;28;20031;-80
2021/10/01 16:13:50;;;;;;;3.42;1.40;;;;;;;;;;4992856;28;20502;-80
2021/10/01 16:16:16;;;;;;;3.25;1.30;;;;;;;;;;4993568;28;20035;-81
2021/10/01 16:18:42;;;;;;;5.85;1.48;;;;;;;;;;4992740;28;20612;-80
2021/10/01 16:21:08;;;;;;;12.27;4.97;;;;;;;;;;4992646;28;20414;-80